sensor_id;sensor_type;location;lat;lon;timestamp;pressure;altitude;pressure_sealevel;temperature;humidity
74372;BME280;62885;51.374;6.170;2022-10-31T00:01:35;101834.81;;;15.60;83.44
74372;BME280;62885;51.374;6.170;2022-10-31T00:04:02;101838.84;;;15.55;83.41
74372;BME280;62885;51.374;6.170;2022-10-31T00:06:28;101837.31;;;15.51;83.99
74372;BME280;62885;51.374;6.170;2022-10-31T00:08:57;101831.69;;;15.43;84.42
74372;BME280;62885;51.374;6.170;2022-10-31T00:11:22;101833.84;;;15.38;85.14
74372;BME280;62885;51.374;6.170;2022-10-31T00:13:48;101836.56;;;15.38;84.50
74372;BME280;62885;51.374;6.170;2022-10-31T00:16:15;101831.41;;;15.35;84.96
74372;BME280;62885;51.374;6.170;2022-10-31T00:18:40;101831.63;;;15.32;84.69
74372;BME280;62885;51.374;6.170;2022-10-31T00:21:06;101837.91;;;15.32;84.52
74372;BME280;62885;51.374;6.170;2022-10-31T00:23:31;101835.44;;;15.29;84.76
74372;BME280;62885;51.374;6.170;2022-10-31T00:26:01;101832.97;;;15.26;84.47
74372;BME280;62885;51.374;6.170;2022-10-31T00:28:26;101826.00;;;15.24;84.56
74372;BME280;62885;51.374;6.170;2022-10-31T00:30:52;101821.69;;;15.21;84.87
74372;BME280;62885;51.374;6.170;2022-10-31T00:33:17;101829.16;;;15.17;84.90
74372;BME280;62885;51.374;6.170;2022-10-31T00:35:49;101823.78;;;15.17;84.97
74372;BME280;62885;51.374;6.170;2022-10-31T00:38:14;101827.56;;;15.15;84.95
74372;BME280;62885;51.374;6.170;2022-10-31T00:40:39;101824.97;;;15.02;85.79
74372;BME280;62885;51.374;6.170;2022-10-31T00:43:05;101821.13;;;14.94;86.30
74372;BME280;62885;51.374;6.170;2022-10-31T00:45:30;101817.16;;;14.87;86.50
74372;BME280;62885;51.374;6.170;2022-10-31T00:47:55;101824.53;;;14.85;86.19
74372;BME280;62885;51.374;6.170;2022-10-31T00:50:21;101827.22;;;14.85;86.34
74372;BME280;62885;51.374;6.170;2022-10-31T00:52:46;101832.84;;;14.82;86.60
74372;BME280;62885;51.374;6.170;2022-10-31T00:55:11;101823.88;;;14.81;86.25
74372;BME280;62885;51.374;6.170;2022-10-31T00:57:37;101817.88;;;14.77;86.52
74372;BME280;62885;51.374;6.170;2022-10-31T01:00:03;101818.34;;;14.71;86.77
74372;BME280;62885;51.374;6.170;2022-10-31T01:02:28;101813.91;;;14.70;86.66
74372;BME280;62885;51.374;6.170;2022-10-31T01:04:54;101817.44;;;14.60;87.09
74372;BME280;62885;51.374;6.170;2022-10-31T01:07:19;101813.59;;;14.51;87.68
74372;BME280;62885;51.374;6.170;2022-10-31T01:09:44;101813.25;;;14.56;87.56
74372;BME280;62885;51.374;6.170;2022-10-31T01:12:10;101809.34;;;14.60;87.35
74372;BME280;62885;51.374;6.170;2022-10-31T01:14:35;101811.06;;;14.61;86.97
74372;BME280;62885;51.374;6.170;2022-10-31T01:17:00;101821.72;;;14.62;87.38
74372;BME280;62885;51.374;6.170;2022-10-31T01:19:26;101820.75;;;14.63;87.29
74372;BME280;62885;51.374;6.170;2022-10-31T01:21:54;101818.28;;;14.60;87.38
74372;BME280;62885;51.374;6.170;2022-10-31T01:24:19;101825.41;;;14.61;87.34
74372;BME280;62885;51.374;6.170;2022-10-31T01:26:44;101836.31;;;14.60;87.19
74372;BME280;62885;51.374;6.170;2022-10-31T01:29:10;101836.50;;;14.57;87.45
74372;BME280;62885;51.374;6.170;2022-10-31T01:31:38;101835.44;;;14.59;87.40
74372;BME280;62885;51.374;6.170;2022-10-31T01:34:04;101836.41;;;14.58;87.33
74372;BME280;62885;51.374;6.170;2022-10-31T01:36:32;101836.09;;;14.50;87.84
74372;BME280;62885;51.374;6.170;2022-10-31T01:39:01;101827.19;;;14.50;87.67
74372;BME280;62885;51.374;6.170;2022-10-31T01:41:30;101837.72;;;14.53;87.71
74372;BME280;62885;51.374;6.170;2022-10-31T01:46:52;101830.72;;;14.50;87.70
74372;BME280;62885;51.374;6.170;2022-10-31T01:49:22;101828.16;;;14.49;87.59
74372;BME280;62885;51.374;6.170;2022-10-31T01:51:53;101824.59;;;14.48;87.76
74372;BME280;62885;51.374;6.170;2022-10-31T01:54:21;101822.88;;;14.47;87.79
74372;BME280;62885;51.374;6.170;2022-10-31T01:56:50;101826.66;;;14.45;87.58
74372;BME280;62885;51.374;6.170;2022-10-31T01:59:19;101827.75;;;14.42;87.80
74372;BME280;62885;51.374;6.170;2022-10-31T02:01:47;101822.38;;;14.42;87.74
74372;BME280;62885;51.374;6.170;2022-10-31T02:04:14;101821.50;;;14.42;87.78
74372;BME280;62885;51.374;6.170;2022-10-31T02:07:01;101811.69;;;14.41;87.66
74372;BME280;62885;51.374;6.170;2022-10-31T02:09:30;101813.75;;;14.37;87.76
74372;BME280;62885;51.374;6.170;2022-10-31T02:11:57;101811.25;;;14.34;87.68
74372;BME280;62885;51.374;6.170;2022-10-31T02:14:25;101818.72;;;14.30;87.78
74372;BME280;62885;51.374;6.170;2022-10-31T02:16:53;101811.69;;;14.28;87.82
74372;BME280;62885;51.374;6.170;2022-10-31T02:33:25;101802.97;;;14.01;89.04
74372;BME280;62885;51.374;6.170;2022-10-31T02:36:03;101805.75;;;13.99;88.89
74372;BME280;62885;51.374;6.170;2022-10-31T02:41:48;101805.25;;;13.94;88.88
74372;BME280;62885;51.374;6.170;2022-10-31T02:47:27;101789.09;;;13.94;89.05
74372;BME280;62885;51.374;6.170;2022-10-31T02:52:26;101797.06;;;13.95;88.82
74372;BME280;62885;51.374;6.170;2022-10-31T02:54:51;101807.06;;;13.93;89.06
74372;BME280;62885;51.374;6.170;2022-10-31T02:57:21;101803.41;;;13.94;88.71
74372;BME280;62885;51.374;6.170;2022-10-31T02:59:53;101800.81;;;13.93;88.86
74372;BME280;62885;51.374;6.170;2022-10-31T03:02:45;101807.06;;;13.93;88.63
74372;BME280;62885;51.374;6.170;2022-10-31T03:05:37;101807.41;;;13.89;88.81
74372;BME280;62885;51.374;6.170;2022-10-31T03:08:23;101807.50;;;13.87;89.16
74372;BME280;62885;51.374;6.170;2022-10-31T03:10:59;101806.13;;;13.82;89.08
74372;BME280;62885;51.374;6.170;2022-10-31T03:13:49;101811.84;;;13.77;89.31
74372;BME280;62885;51.374;6.170;2022-10-31T03:16:48;101813.03;;;13.73;89.03
74372;BME280;62885;51.374;6.170;2022-10-31T03:19:20;101815.41;;;13.65;89.49
74372;BME280;62885;51.374;6.170;2022-10-31T03:21:59;101808.00;;;13.56;89.87
74372;BME280;62885;51.374;6.170;2022-10-31T03:24:30;101809.06;;;13.53;90.18
74372;BME280;62885;51.374;6.170;2022-10-31T03:26:59;101810.03;;;13.52;89.98
74372;BME280;62885;51.374;6.170;2022-10-31T03:29:27;101810.03;;;13.52;90.27
74372;BME280;62885;51.374;6.170;2022-10-31T03:32:27;101813.69;;;13.51;90.02
74372;BME280;62885;51.374;6.170;2022-10-31T03:34:57;101804.03;;;13.49;90.39
74372;BME280;62885;51.374;6.170;2022-10-31T03:37:26;101813.69;;;13.51;90.21
74372;BME280;62885;51.374;6.170;2022-10-31T03:39:54;101808.22;;;13.53;89.68
74372;BME280;62885;51.374;6.170;2022-10-31T03:42:25;101807.47;;;13.51;90.16
74372;BME280;62885;51.374;6.170;2022-10-31T03:44:58;101797.00;;;13.46;90.15
74372;BME280;62885;51.374;6.170;2022-10-31T03:47:25;101802.53;;;13.45;90.16
74372;BME280;62885;51.374;6.170;2022-10-31T03:49:51;101790.22;;;13.28;90.82
74372;BME280;62885;51.374;6.170;2022-10-31T03:52:30;101792.81;;;13.30;90.99
74372;BME280;62885;51.374;6.170;2022-10-31T03:55:02;101779.38;;;13.30;90.84
74372;BME280;62885;51.374;6.170;2022-10-31T03:57:51;101786.25;;;13.34;90.97
74372;BME280;62885;51.374;6.170;2022-10-31T04:00:18;101787.53;;;13.28;90.97
74372;BME280;62885;51.374;6.170;2022-10-31T04:02:53;101777.22;;;13.22;90.94
74372;BME280;62885;51.374;6.170;2022-10-31T04:05:20;101785.19;;;13.24;91.25
74372;BME280;62885;51.374;6.170;2022-10-31T04:07:47;101787.78;;;13.25;91.18
74372;BME280;62885;51.374;6.170;2022-10-31T04:10:16;101777.34;;;13.21;91.67
74372;BME280;62885;51.374;6.170;2022-10-31T04:12:45;101784.75;;;13.17;91.34
74372;BME280;62885;51.374;6.170;2022-10-31T04:15:14;101790.50;;;13.11;91.46
74372;BME280;62885;51.374;6.170;2022-10-31T04:17:41;101792.19;;;13.13;92.04
74372;BME280;62885;51.374;6.170;2022-10-31T04:20:09;101793.91;;;13.14;91.60
74372;BME280;62885;51.374;6.170;2022-10-31T04:22:34;101790.34;;;13.14;91.34
74372;BME280;62885;51.374;6.170;2022-10-31T04:25:00;101785.84;;;13.14;91.78
74372;BME280;62885;51.374;6.170;2022-10-31T04:27:25;101791.38;;;13.11;91.73
74372;BME280;62885;51.374;6.170;2022-10-31T04:29:51;101791.72;;;13.07;91.82
74372;BME280;62885;51.374;6.170;2022-10-31T04:32:16;101791.81;;;13.05;91.73
74372;BME280;62885;51.374;6.170;2022-10-31T04:34:41;101801.41;;;13.09;91.78
74372;BME280;62885;51.374;6.170;2022-10-31T04:37:07;101805.72;;;13.12;91.68
74372;BME280;62885;51.374;6.170;2022-10-31T04:39:32;101803.97;;;13.11;91.27
74372;BME280;62885;51.374;6.170;2022-10-31T04:41:57;101796.97;;;13.08;91.18
74372;BME280;62885;51.374;6.170;2022-10-31T04:44:23;101793.53;;;13.06;91.79
74372;BME280;62885;51.374;6.170;2022-10-31T04:46:48;101795.47;;;13.04;92.11
74372;BME280;62885;51.374;6.170;2022-10-31T04:49:14;101783.00;;;13.03;91.50
74372;BME280;62885;51.374;6.170;2022-10-31T04:51:39;101787.50;;;13.03;92.13
74372;BME280;62885;51.374;6.170;2022-10-31T04:54:04;101785.78;;;13.02;91.83
74372;BME280;62885;51.374;6.170;2022-10-31T04:56:30;101793.00;;;13.01;91.38
74372;BME280;62885;51.374;6.170;2022-10-31T04:58:55;101786.97;;;12.98;91.92
74372;BME280;62885;51.374;6.170;2022-10-31T05:01:21;101783.53;;;12.96;92.21
74372;BME280;62885;51.374;6.170;2022-10-31T05:03:46;101787.84;;;12.98;91.47
74372;BME280;62885;51.374;6.170;2022-10-31T05:06:11;101784.47;;;12.95;91.88
74372;BME280;62885;51.374;6.170;2022-10-31T05:08:37;101773.94;;;12.92;91.46
74372;BME280;62885;51.374;6.170;2022-10-31T05:11:03;101775.88;;;12.90;91.83
74372;BME280;62885;51.374;6.170;2022-10-31T05:13:29;101774.16;;;12.89;91.45
74372;BME280;62885;51.374;6.170;2022-10-31T05:15:55;101770.72;;;12.87;92.04
74372;BME280;62885;51.374;6.170;2022-10-31T05:18:21;101778.34;;;12.80;91.71
74372;BME280;62885;51.374;6.170;2022-10-31T05:20:46;101765.41;;;12.72;92.30
74372;BME280;62885;51.374;6.170;2022-10-31T05:23:12;101761.97;;;12.70;92.07
74372;BME280;62885;51.374;6.170;2022-10-31T05:25:39;101753.16;;;12.68;92.15
74372;BME280;62885;51.374;6.170;2022-10-31T05:28:05;101759.06;;;12.61;92.69
74372;BME280;62885;51.374;6.170;2022-10-31T05:30:31;101744.84;;;12.59;92.66
74372;BME280;62885;51.374;6.170;2022-10-31T05:32:57;101753.59;;;12.62;92.56
74372;BME280;62885;51.374;6.170;2022-10-31T05:35:25;101756.91;;;12.66;92.58
74372;BME280;62885;51.374;6.170;2022-10-31T05:37:51;101758.63;;;12.67;92.58
74372;BME280;62885;51.374;6.170;2022-10-31T05:40:17;101762.59;;;12.61;92.19
74372;BME280;62885;51.374;6.170;2022-10-31T05:42:43;101764.84;;;12.55;92.08
74372;BME280;62885;51.374;6.170;2022-10-31T05:45:11;101764.94;;;12.53;93.30
74372;BME280;62885;51.374;6.170;2022-10-31T05:47:37;101758.16;;;12.48;92.53
74372;BME280;62885;51.374;6.170;2022-10-31T05:50:03;101753.97;;;12.44;92.50
74372;BME280;62885;51.374;6.170;2022-10-31T05:52:28;101748.13;;;12.37;92.74
74372;BME280;62885;51.374;6.170;2022-10-31T05:54:53;101748.69;;;12.42;93.53
74372;BME280;62885;51.374;6.170;2022-10-31T05:57:19;101749.00;;;12.38;93.12
74372;BME280;62885;51.374;6.170;2022-10-31T05:59:44;101742.66;;;12.39;93.30
74372;BME280;62885;51.374;6.170;2022-10-31T06:02:09;101746.75;;;12.44;92.38
74372;BME280;62885;51.374;6.170;2022-10-31T06:04:35;101756.84;;;12.41;92.86
74372;BME280;62885;51.374;6.170;2022-10-31T06:07:00;101760.59;;;12.38;93.21
74372;BME280;62885;51.374;6.170;2022-10-31T06:09:26;101761.56;;;12.37;92.61
74372;BME280;62885;51.374;6.170;2022-10-31T06:11:51;101767.69;;;12.39;92.72
74372;BME280;62885;51.374;6.170;2022-10-31T06:14:16;101763.28;;;12.38;92.83
74372;BME280;62885;51.374;6.170;2022-10-31T06:16:42;101756.19;;;12.37;92.46
74372;BME280;62885;51.374;6.170;2022-10-31T06:19:07;101757.16;;;12.36;91.85
74372;BME280;62885;51.374;6.170;2022-10-31T06:21:32;101759.28;;;12.31;92.54
74372;BME280;62885;51.374;6.170;2022-10-31T06:23:58;101746.47;;;12.22;91.85
74372;BME280;62885;51.374;6.170;2022-10-31T06:26:23;101748.56;;;12.04;92.76
74372;BME280;62885;51.374;6.170;2022-10-31T06:28:48;101744.94;;;11.91;93.55
74372;BME280;62885;51.374;6.170;2022-10-31T06:31:14;101749.50;;;12.03;94.15
74372;BME280;62885;51.374;6.170;2022-10-31T06:33:41;101749.50;;;12.03;93.41
74372;BME280;62885;51.374;6.170;2022-10-31T06:36:07;101753.91;;;12.04;93.58
74372;BME280;62885;51.374;6.170;2022-10-31T06:38:33;101745.47;;;12.10;94.05
74372;BME280;62885;51.374;6.170;2022-10-31T06:41:02;101750.53;;;12.15;93.41
74372;BME280;62885;51.374;6.170;2022-10-31T06:43:28;101755.91;;;12.15;92.87
74372;BME280;62885;51.374;6.170;2022-10-31T06:45:53;101747.75;;;12.16;92.66
74372;BME280;62885;51.374;6.170;2022-10-31T06:48:18;101741.69;;;12.13;92.24
74372;BME280;62885;51.374;6.170;2022-10-31T06:50:44;101740.19;;;12.09;93.25
74372;BME280;62885;51.374;6.170;2022-10-31T06:53:09;101749.00;;;12.11;92.66
74372;BME280;62885;51.374;6.170;2022-10-31T06:55:35;101746.34;;;12.11;93.05
74372;BME280;62885;51.374;6.170;2022-10-31T06:58:00;101744.94;;;12.18;92.58
74372;BME280;62885;51.374;6.170;2022-10-31T07:00:28;101753.97;;;12.17;92.58
74372;BME280;62885;51.374;6.170;2022-10-31T07:05:23;101750.91;;;12.23;92.49
74372;BME280;62885;51.374;6.170;2022-10-31T07:07:57;101751.00;;;12.21;91.72
74372;BME280;62885;51.374;6.170;2022-10-31T07:10:23;101747.63;;;12.18;92.51
74372;BME280;62885;51.374;6.170;2022-10-31T07:12:56;101745.81;;;12.18;92.77
74372;BME280;62885;51.374;6.170;2022-10-31T07:15:23;101753.34;;;12.26;92.80
74372;BME280;62885;51.374;6.170;2022-10-31T07:17:49;101752.50;;;12.25;93.22
74372;BME280;62885;51.374;6.170;2022-10-31T07:20:14;101752.41;;;12.27;92.00
74372;BME280;62885;51.374;6.170;2022-10-31T07:22:40;101751.13;;;12.32;92.42
74372;BME280;62885;51.374;6.170;2022-10-31T07:25:05;101752.84;;;12.33;92.08
74372;BME280;62885;51.374;6.170;2022-10-31T07:27:41;101754.59;;;12.34;92.10
74372;BME280;62885;51.374;6.170;2022-10-31T07:30:09;101767.69;;;12.39;92.21
74372;BME280;62885;51.374;6.170;2022-10-31T07:32:46;101769.97;;;12.45;92.59
74372;BME280;62885;51.374;6.170;2022-10-31T07:35:20;101756.41;;;12.47;92.40
74372;BME280;62885;51.374;6.170;2022-10-31T07:37:46;101758.91;;;12.50;92.46
74372;BME280;62885;51.374;6.170;2022-10-31T07:40:12;101761.97;;;12.58;92.39
74372;BME280;62885;51.374;6.170;2022-10-31T07:42:42;101759.16;;;12.59;92.51
74372;BME280;62885;51.374;6.170;2022-10-31T07:45:09;101765.66;;;12.69;93.03
74372;BME280;62885;51.374;6.170;2022-10-31T07:47:43;101761.69;;;12.75;92.71
74372;BME280;62885;51.374;6.170;2022-10-31T07:50:10;101757.28;;;12.87;92.99
74372;BME280;62885;51.374;6.170;2022-10-31T07:52:36;101756.00;;;12.92;92.71
74372;BME280;62885;51.374;6.170;2022-10-31T07:55:02;101763.50;;;13.00;92.38
74372;BME280;62885;51.374;6.170;2022-10-31T07:57:28;101761.94;;;13.10;91.72
74372;BME280;62885;51.374;6.170;2022-10-31T07:59:54;101763.47;;;13.14;91.65
74372;BME280;62885;51.374;6.170;2022-10-31T08:02:19;101766.06;;;13.15;91.85
74372;BME280;62885;51.374;6.170;2022-10-31T08:04:44;101767.75;;;13.16;91.87
74372;BME280;62885;51.374;6.170;2022-10-31T08:07:10;101763.47;;;13.14;91.54
74372;BME280;62885;51.374;6.170;2022-10-31T08:09:35;101771.09;;;13.20;91.85
74372;BME280;62885;51.374;6.170;2022-10-31T08:12:00;101770.34;;;13.18;91.02
74372;BME280;62885;51.374;6.170;2022-10-31T08:14:26;101760.13;;;13.23;91.62
74372;BME280;62885;51.374;6.170;2022-10-31T08:16:53;101757.22;;;13.26;91.14
74372;BME280;62885;51.374;6.170;2022-10-31T08:19:18;101754.19;;;13.31;91.03
74372;BME280;62885;51.374;6.170;2022-10-31T08:21:43;101748.94;;;13.29;91.05
74372;BME280;62885;51.374;6.170;2022-10-31T08:24:09;101762.59;;;13.39;90.97
74372;BME280;62885;51.374;6.170;2022-10-31T08:26:34;101759.16;;;13.49;90.34
74372;BME280;62885;51.374;6.170;2022-10-31T08:29:00;101761.06;;;13.60;89.76
74372;BME280;62885;51.374;6.170;2022-10-31T08:31:27;101767.72;;;13.67;89.71
74372;BME280;62885;51.374;6.170;2022-10-31T08:33:53;101766.19;;;13.76;89.43
74372;BME280;62885;51.374;6.170;2022-10-31T08:36:20;101766.31;;;13.74;89.37
74372;BME280;62885;51.374;6.170;2022-10-31T08:38:48;101758.97;;;13.76;89.13
74372;BME280;62885;51.374;6.170;2022-10-31T08:41:14;101765.84;;;13.80;88.53
74372;BME280;62885;51.374;6.170;2022-10-31T08:43:39;101763.56;;;13.87;88.99
74372;BME280;62885;51.374;6.170;2022-10-31T08:46:05;101751.41;;;13.81;89.09
74372;BME280;62885;51.374;6.170;2022-10-31T08:48:30;101747.78;;;13.70;88.95
74372;BME280;62885;51.374;6.170;2022-10-31T08:50:57;101742.91;;;13.87;89.49
74372;BME280;62885;51.374;6.170;2022-10-31T08:53:23;101744.41;;;13.91;88.33
74372;BME280;62885;51.374;6.170;2022-10-31T08:55:49;101731.41;;;13.85;88.40
74372;BME280;62885;51.374;6.170;2022-10-31T08:58:22;101729.56;;;13.86;88.16
74372;BME280;62885;51.374;6.170;2022-10-31T09:00:50;101723.94;;;13.89;88.62
74372;BME280;62885;51.374;6.170;2022-10-31T09:03:22;101726.47;;;13.79;88.46
74372;BME280;62885;51.374;6.170;2022-10-31T09:05:48;101731.00;;;13.79;88.93
74372;BME280;62885;51.374;6.170;2022-10-31T09:08:14;101722.78;;;13.80;89.14
74372;BME280;62885;51.374;6.170;2022-10-31T09:10:40;101714.69;;;13.80;89.12
74372;BME280;62885;51.374;6.170;2022-10-31T09:13:14;101713.59;;;13.95;89.17
74372;BME280;62885;51.374;6.170;2022-10-31T09:15:41;101714.97;;;14.01;88.51
74372;BME280;62885;51.374;6.170;2022-10-31T09:18:09;101705.50;;;13.95;88.48
74372;BME280;62885;51.374;6.170;2022-10-31T09:20:36;101698.81;;;14.01;88.26
74372;BME280;62885;51.374;6.170;2022-10-31T09:23:04;101698.34;;;14.07;88.06
74372;BME280;62885;51.374;6.170;2022-10-31T09:25:29;101700.47;;;14.15;87.50
74372;BME280;62885;51.374;6.170;2022-10-31T09:27:58;101697.19;;;14.22;87.20
74372;BME280;62885;51.374;6.170;2022-10-31T09:30:25;101696.78;;;14.16;86.92
74372;BME280;62885;51.374;6.170;2022-10-31T09:32:58;101689.75;;;14.26;86.95
74372;BME280;62885;51.374;6.170;2022-10-31T09:35:25;101691.00;;;14.33;85.74
74372;BME280;62885;51.374;6.170;2022-10-31T09:37:58;101681.28;;;14.43;85.38
74372;BME280;62885;51.374;6.170;2022-10-31T09:40:33;101675.91;;;14.43;84.48
74372;BME280;62885;51.374;6.170;2022-10-31T09:43:02;101676.03;;;14.53;84.11
74372;BME280;62885;51.374;6.170;2022-10-31T09:50:47;101674.22;;;14.64;83.55
74372;BME280;62885;51.374;6.170;2022-10-31T09:56:20;101662.22;;;14.68;83.65
74372;BME280;62885;51.374;6.170;2022-10-31T09:58:50;101651.09;;;14.73;83.36
74372;BME280;62885;51.374;6.170;2022-10-31T10:01:30;101656.50;;;14.84;83.27
74372;BME280;62885;51.374;6.170;2022-10-31T10:04:01;101651.50;;;14.91;82.83
74372;BME280;62885;51.374;6.170;2022-10-31T10:06:29;101658.19;;;14.85;82.49
74372;BME280;62885;51.374;6.170;2022-10-31T10:08:57;101663.25;;;15.01;81.87
74372;BME280;62885;51.374;6.170;2022-10-31T10:22:36;101635.53;;;15.21;79.94
74372;BME280;62885;51.374;6.170;2022-10-31T10:27:49;101618.63;;;15.30;79.51
74372;BME280;62885;51.374;6.170;2022-10-31T10:30:18;101620.84;;;15.25;78.71
74372;BME280;62885;51.374;6.170;2022-10-31T10:32:49;101615.28;;;15.27;79.32
74372;BME280;62885;51.374;6.170;2022-10-31T10:35:29;101603.88;;;15.34;78.79
74372;BME280;62885;51.374;6.170;2022-10-31T10:38:01;101610.22;;;15.44;78.39
74372;BME280;62885;51.374;6.170;2022-10-31T10:40:28;101610.13;;;15.57;78.65
74372;BME280;62885;51.374;6.170;2022-10-31T10:43:20;101602.97;;;15.67;77.89
74372;BME280;62885;51.374;6.170;2022-10-31T10:51:50;101556.00;;;15.58;77.92
74372;BME280;62885;51.374;6.170;2022-10-31T10:54:39;101577.91;;;15.76;77.18
74372;BME280;62885;51.374;6.170;2022-10-31T10:59:34;101592.75;;;15.82;76.66
74372;BME280;62885;51.374;6.170;2022-10-31T11:02:00;101595.28;;;15.94;76.56
74372;BME280;62885;51.374;6.170;2022-10-31T11:04:34;101617.97;;;15.92;76.61
74372;BME280;62885;51.374;6.170;2022-10-31T11:07:04;101609.03;;;15.91;77.01
74372;BME280;62885;51.374;6.170;2022-10-31T11:09:29;101612.53;;;16.03;76.48
74372;BME280;62885;51.374;6.170;2022-10-31T11:11:55;101614.53;;;16.01;76.08
74372;BME280;62885;51.374;6.170;2022-10-31T11:14:22;101602.88;;;16.00;76.24
74372;BME280;62885;51.374;6.170;2022-10-31T11:16:52;101598.97;;;15.93;76.63
74372;BME280;62885;51.374;6.170;2022-10-31T11:19:21;101586.75;;;15.78;77.44
74372;BME280;62885;51.374;6.170;2022-10-31T11:21:48;101581.88;;;15.72;77.65
74372;BME280;62885;51.374;6.170;2022-10-31T11:24:16;101585.03;;;15.77;77.86
74372;BME280;62885;51.374;6.170;2022-10-31T11:26:45;101573.38;;;15.77;77.35
74372;BME280;62885;51.374;6.170;2022-10-31T11:29:20;101557.13;;;15.88;77.63
74372;BME280;62885;51.374;6.170;2022-10-31T11:31:46;101551.50;;;15.80;77.55
74372;BME280;62885;51.374;6.170;2022-10-31T11:36:46;101539.31;;;15.85;77.48
74372;BME280;62885;51.374;6.170;2022-10-31T11:39:20;101532.41;;;15.92;77.28
74372;BME280;62885;51.374;6.170;2022-10-31T11:41:47;101523.53;;;16.01;77.43
74372;BME280;62885;51.374;6.170;2022-10-31T11:46:53;101514.25;;;15.94;77.23
74372;BME280;62885;51.374;6.170;2022-10-31T11:49:29;101510.75;;;16.03;76.93
74372;BME280;62885;51.374;6.170;2022-10-31T11:51:57;101508.03;;;16.03;77.47
74372;BME280;62885;51.374;6.170;2022-10-31T11:54:40;101511.06;;;16.10;77.02
74372;BME280;62885;51.374;6.170;2022-10-31T11:57:31;101495.31;;;16.15;76.44
74372;BME280;62885;51.374;6.170;2022-10-31T11:59:59;101489.47;;;16.10;77.19
74372;BME280;62885;51.374;6.170;2022-10-31T12:02:25;101478.44;;;16.23;76.89
74372;BME280;62885;51.374;6.170;2022-10-31T12:04:58;101475.66;;;16.34;76.20
74372;BME280;62885;51.374;6.170;2022-10-31T12:07:25;101475.66;;;16.34;75.92
74372;BME280;62885;51.374;6.170;2022-10-31T12:09:50;101480.66;;;16.38;75.97
74372;BME280;62885;51.374;6.170;2022-10-31T12:17:49;101462.06;;;16.55;75.43
74372;BME280;62885;51.374;6.170;2022-10-31T12:23:04;101446.06;;;16.63;74.93
74372;BME280;62885;51.374;6.170;2022-10-31T12:25:45;101430.59;;;16.74;74.71
74372;BME280;62885;51.374;6.170;2022-10-31T12:36:29;101413.81;;;16.90;73.78
74372;BME280;62885;51.374;6.170;2022-10-31T12:39:24;101407.16;;;16.94;73.47
74372;BME280;62885;51.374;6.170;2022-10-31T12:42:13;101393.63;;;16.94;73.96
74372;BME280;62885;51.374;6.170;2022-10-31T12:50:10;101373.81;;;16.94;73.38
74372;BME280;62885;51.374;6.170;2022-10-31T12:56:07;101363.31;;;17.00;73.48
74372;BME280;62885;51.374;6.170;2022-10-31T12:58:40;101356.00;;;17.01;73.06
74372;BME280;62885;51.374;6.170;2022-10-31T13:01:24;101350.88;;;17.07;73.08
74372;BME280;62885;51.374;6.170;2022-10-31T13:03:57;101336.09;;;17.11;72.75
74372;BME280;62885;51.374;6.170;2022-10-31T13:06:35;101337.53;;;17.06;73.12
74372;BME280;62885;51.374;6.170;2022-10-31T13:09:08;101329.81;;;17.01;72.67
74372;BME280;62885;51.374;6.170;2022-10-31T13:11:45;101327.69;;;17.05;72.61
74372;BME280;62885;51.374;6.170;2022-10-31T13:16:50;101322.53;;;17.21;72.29
74372;BME280;62885;51.374;6.170;2022-10-31T13:19:22;101323.84;;;17.17;72.23
74372;BME280;62885;51.374;6.170;2022-10-31T13:21:57;101323.13;;;17.15;72.36
74372;BME280;62885;51.374;6.170;2022-10-31T13:24:33;101320.28;;;17.16;72.02
74372;BME280;62885;51.374;6.170;2022-10-31T13:27:03;101319.53;;;17.24;71.72
74372;BME280;62885;51.374;6.170;2022-10-31T13:29:41;101312.84;;;17.28;71.66
74372;BME280;62885;51.374;6.170;2022-10-31T13:32:09;101302.44;;;17.33;71.40
74372;BME280;62885;51.374;6.170;2022-10-31T13:34:52;101300.88;;;17.31;71.34
74372;BME280;62885;51.374;6.170;2022-10-31T13:37:39;101299.75;;;17.33;71.23
74372;BME280;62885;51.374;6.170;2022-10-31T13:45:33;101269.06;;;17.42;70.44
74372;BME280;62885;51.374;6.170;2022-10-31T13:48:19;101253.81;;;17.51;69.75
74372;BME280;62885;51.374;6.170;2022-10-31T13:50:58;101254.53;;;17.53;69.74
74372;BME280;62885;51.374;6.170;2022-10-31T13:53:56;101251.50;;;17.56;69.36
74372;BME280;62885;51.374;6.170;2022-10-31T13:56:24;101254.38;;;17.64;69.27
74372;BME280;62885;51.374;6.170;2022-10-31T14:01:25;101248.03;;;17.73;69.08
74372;BME280;62885;51.374;6.170;2022-10-31T14:04:12;101242.50;;;17.75;68.84
74372;BME280;62885;51.374;6.170;2022-10-31T14:06:53;101241.19;;;17.79;68.76
74372;BME280;62885;51.374;6.170;2022-10-31T14:09:24;101237.16;;;17.83;68.59
74372;BME280;62885;51.374;6.170;2022-10-31T14:11:51;101229.75;;;17.85;68.08
74372;BME280;62885;51.374;6.170;2022-10-31T14:14:17;101222.00;;;17.90;67.79
74372;BME280;62885;51.374;6.170;2022-10-31T14:16:44;101217.97;;;17.94;67.72
74372;BME280;62885;51.374;6.170;2022-10-31T14:19:17;101212.41;;;17.95;67.21
74372;BME280;62885;51.374;6.170;2022-10-31T14:21:45;101209.66;;;18.05;67.05
74372;BME280;62885;51.374;6.170;2022-10-31T14:27:01;101193.81;;;18.10;66.68
74372;BME280;62885;51.374;6.170;2022-10-31T14:29:29;101188.91;;;18.14;66.50
74372;BME280;62885;51.374;6.170;2022-10-31T14:32:16;101190.16;;;18.19;65.90
74372;BME280;62885;51.374;6.170;2022-10-31T14:38:12;101172.75;;;18.22;65.32
74372;BME280;62885;51.374;6.170;2022-10-31T14:43:28;101173.28;;;18.25;65.92
74372;BME280;62885;51.374;6.170;2022-10-31T14:46:02;101166.53;;;18.29;65.63
74372;BME280;62885;51.374;6.170;2022-10-31T14:48:42;101156.88;;;18.27;65.48
74372;BME280;62885;51.374;6.170;2022-10-31T14:51:16;101152.78;;;18.23;65.42